sensor_id;sensor_type;location;lat;lon;timestamp;temperature;humidity
6496;DHT22;3281;47.658;9.166;2022-10-16T00:00:47;14.40;73.40
6496;DHT22;3281;47.658;9.166;2022-10-16T00:03:13;14.40;71.50
6496;DHT22;3281;47.658;9.166;2022-10-16T00:05:42;14.20;69.60
6496;DHT22;3281;47.658;9.166;2022-10-16T00:08:10;14.30;73.50
6496;DHT22;3281;47.658;9.166;2022-10-16T00:10:37;14.20;71.20
6496;DHT22;3281;47.658;9.166;2022-10-16T00:13:04;14.20;73.30
6496;DHT22;3281;47.658;9.166;2022-10-16T00:15:35;14.30;78.40
6496;DHT22;3281;47.658;9.166;2022-10-16T00:18:02;14.20;73.30
6496;DHT22;3281;47.658;9.166;2022-10-16T00:20:29;14.40;78.90
6496;DHT22;3281;47.658;9.166;2022-10-16T00:22:56;14.40;75.80
6496;DHT22;3281;47.658;9.166;2022-10-16T00:25:23;14.50;73.70
6496;DHT22;3281;47.658;9.166;2022-10-16T00:27:50;14.40;73.10
6496;DHT22;3281;47.658;9.166;2022-10-16T00:30:17;14.40;76.80
6496;DHT22;3281;47.658;9.166;2022-10-16T00:32:45;14.30;71.30
6496;DHT22;3281;47.658;9.166;2022-10-16T00:35:12;14.40;74.40
6496;DHT22;3281;47.658;9.166;2022-10-16T00:37:38;14.50;75.90
6496;DHT22;3281;47.658;9.166;2022-10-16T00:40:06;14.60;73.30
6496;DHT22;3281;47.658;9.166;2022-10-16T00:42:33;14.50;71.60
6496;DHT22;3281;47.658;9.166;2022-10-16T00:45:00;14.60;71.80
6496;DHT22;3281;47.658;9.166;2022-10-16T00:47:29;14.60;71.10
6496;DHT22;3281;47.658;9.166;2022-10-16T00:50:03;14.60;72.10
6496;DHT22;3281;47.658;9.166;2022-10-16T00:52:31;14.40;70.80
6496;DHT22;3281;47.658;9.166;2022-10-16T00:54:58;14.40;73.50
6496;DHT22;3281;47.658;9.166;2022-10-16T00:57:26;14.40;73.40
6496;DHT22;3281;47.658;9.166;2022-10-16T00:59:53;14.50;75.60
6496;DHT22;3281;47.658;9.166;2022-10-16T01:02:20;14.50;72.60
6496;DHT22;3281;47.658;9.166;2022-10-16T01:04:50;14.40;75.80
6496;DHT22;3281;47.658;9.166;2022-10-16T01:07:36;14.40;74.90
6496;DHT22;3281;47.658;9.166;2022-10-16T01:10:15;14.50;74.80
6496;DHT22;3281;47.658;9.166;2022-10-16T01:12:47;14.40;73.60
6496;DHT22;3281;47.658;9.166;2022-10-16T01:15:21;14.30;72.20
6496;DHT22;3281;47.658;9.166;2022-10-16T01:17:56;14.40;74.20
6496;DHT22;3281;47.658;9.166;2022-10-16T01:20:27;14.40;73.50
6496;DHT22;3281;47.658;9.166;2022-10-16T01:23:21;14.30;74.20
6496;DHT22;3281;47.658;9.166;2022-10-16T01:26:14;14.20;74.70
6496;DHT22;3281;47.658;9.166;2022-10-16T01:28:51;14.40;77.20
6496;DHT22;3281;47.658;9.166;2022-10-16T01:31:22;14.40;73.50
6496;DHT22;3281;47.658;9.166;2022-10-16T01:33:54;14.40;73.60
6496;DHT22;3281;47.658;9.166;2022-10-16T01:36:29;14.40;76.60
6496;DHT22;3281;47.658;9.166;2022-10-16T01:39:01;14.40;73.60
6496;DHT22;3281;47.658;9.166;2022-10-16T01:41:31;14.30;75.00
6496;DHT22;3281;47.658;9.166;2022-10-16T01:44:03;14.30;78.30
6496;DHT22;3281;47.658;9.166;2022-10-16T01:46:32;14.40;76.40
6496;DHT22;3281;47.658;9.166;2022-10-16T01:49:00;14.40;78.60
6496;DHT22;3281;47.658;9.166;2022-10-16T01:51:28;14.40;79.30
6496;DHT22;3281;47.658;9.166;2022-10-16T01:53:57;14.30;76.80
6496;DHT22;3281;47.658;9.166;2022-10-16T01:56:25;14.40;77.10
6496;DHT22;3281;47.658;9.166;2022-10-16T01:58:55;14.40;76.90
6496;DHT22;3281;47.658;9.166;2022-10-16T02:01:25;14.40;76.30
6496;DHT22;3281;47.658;9.166;2022-10-16T02:03:54;14.40;75.80
6496;DHT22;3281;47.658;9.166;2022-10-16T02:06:23;14.40;78.40
6496;DHT22;3281;47.658;9.166;2022-10-16T02:08:51;14.50;79.50
6496;DHT22;3281;47.658;9.166;2022-10-16T02:11:18;14.50;75.20
6496;DHT22;3281;47.658;9.166;2022-10-16T02:13:48;14.40;75.40
6496;DHT22;3281;47.658;9.166;2022-10-16T02:16:17;14.40;73.60
6496;DHT22;3281;47.658;9.166;2022-10-16T02:18:45;14.30;73.50
6496;DHT22;3281;47.658;9.166;2022-10-16T02:21:16;14.30;71.50
6496;DHT22;3281;47.658;9.166;2022-10-16T02:23:48;14.40;75.20
6496;DHT22;3281;47.658;9.166;2022-10-16T02:26:23;14.40;79.30
6496;DHT22;3281;47.658;9.166;2022-10-16T02:28:55;14.40;76.60
6496;DHT22;3281;47.658;9.166;2022-10-16T02:31:27;14.30;73.50
6496;DHT22;3281;47.658;9.166;2022-10-16T02:33:58;14.30;79.30
6496;DHT22;3281;47.658;9.166;2022-10-16T02:36:25;14.30;76.00
6496;DHT22;3281;47.658;9.166;2022-10-16T02:38:52;14.30;78.50
6496;DHT22;3281;47.658;9.166;2022-10-16T02:41:20;14.50;78.60
6496;DHT22;3281;47.658;9.166;2022-10-16T02:43:47;14.50;76.20
6496;DHT22;3281;47.658;9.166;2022-10-16T02:46:14;14.50;78.00
6496;DHT22;3281;47.658;9.166;2022-10-16T02:48:41;14.30;73.50
6496;DHT22;3281;47.658;9.166;2022-10-16T02:51:09;14.30;75.60
6496;DHT22;3281;47.658;9.166;2022-10-16T02:53:36;14.30;74.70
6496;DHT22;3281;47.658;9.166;2022-10-16T02:56:03;14.20;78.00
6496;DHT22;3281;47.658;9.166;2022-10-16T02:58:29;14.10;76.70
6496;DHT22;3281;47.658;9.166;2022-10-16T03:00:56;14.30;82.20
6496;DHT22;3281;47.658;9.166;2022-10-16T03:03:23;14.30;81.80
6496;DHT22;3281;47.658;9.166;2022-10-16T03:05:50;14.50;83.30
6496;DHT22;3281;47.658;9.166;2022-10-16T03:08:18;14.50;73.70
6496;DHT22;3281;47.658;9.166;2022-10-16T03:10:48;14.30;74.20
6496;DHT22;3281;47.658;9.166;2022-10-16T03:13:15;14.30;75.80
6496;DHT22;3281;47.658;9.166;2022-10-16T03:15:43;14.30;80.30
6496;DHT22;3281;47.658;9.166;2022-10-16T03:18:09;14.50;80.00
6496;DHT22;3281;47.658;9.166;2022-10-16T03:20:36;14.50;78.70
6496;DHT22;3281;47.658;9.166;2022-10-16T03:23:03;14.50;77.70
6496;DHT22;3281;47.658;9.166;2022-10-16T03:25:31;14.40;76.20
6496;DHT22;3281;47.658;9.166;2022-10-16T03:27:58;14.40;79.30
6496;DHT22;3281;47.658;9.166;2022-10-16T03:30:24;14.40;81.60
6496;DHT22;3281;47.658;9.166;2022-10-16T03:32:51;14.30;81.00
6496;DHT22;3281;47.658;9.166;2022-10-16T03:35:19;14.30;85.20
6496;DHT22;3281;47.658;9.166;2022-10-16T03:37:46;14.40;83.40
6496;DHT22;3281;47.658;9.166;2022-10-16T03:40:13;14.40;87.90
6496;DHT22;3281;47.658;9.166;2022-10-16T03:42:42;14.40;86.90
6496;DHT22;3281;47.658;9.166;2022-10-16T03:45:09;14.40;88.00
6496;DHT22;3281;47.658;9.166;2022-10-16T03:47:36;14.40;87.90
6496;DHT22;3281;47.658;9.166;2022-10-16T03:50:04;14.40;90.30
6496;DHT22;3281;47.658;9.166;2022-10-16T03:52:31;14.40;90.70
6496;DHT22;3281;47.658;9.166;2022-10-16T03:54:58;14.40;90.80
6496;DHT22;3281;47.658;9.166;2022-10-16T03:57:25;14.40;92.30
6496;DHT22;3281;47.658;9.166;2022-10-16T03:59:53;14.30;92.80
6496;DHT22;3281;47.658;9.166;2022-10-16T04:02:19;14.40;93.30
6496;DHT22;3281;47.658;9.166;2022-10-16T04:04:46;14.40;92.90
6496;DHT22;3281;47.658;9.166;2022-10-16T04:07:13;14.40;93.10
6496;DHT22;3281;47.658;9.166;2022-10-16T04:09:39;14.30;92.90
6496;DHT22;3281;47.658;9.166;2022-10-16T04:12:07;14.50;95.60
6496;DHT22;3281;47.658;9.166;2022-10-16T04:14:34;14.50;95.30
6496;DHT22;3281;47.658;9.166;2022-10-16T04:17:02;14.40;95.30
6496;DHT22;3281;47.658;9.166;2022-10-16T04:19:29;14.60;95.40
6496;DHT22;3281;47.658;9.166;2022-10-16T04:21:55;14.70;95.50
6496;DHT22;3281;47.658;9.166;2022-10-16T04:24:22;14.70;97.20
6496;DHT22;3281;47.658;9.166;2022-10-16T04:26:49;14.70;96.30
6496;DHT22;3281;47.658;9.166;2022-10-16T04:29:16;14.70;95.60
6496;DHT22;3281;47.658;9.166;2022-10-16T04:31:42;14.70;95.40
6496;DHT22;3281;47.658;9.166;2022-10-16T04:34:10;14.70;95.60
6496;DHT22;3281;47.658;9.166;2022-10-16T04:36:37;14.70;95.70
6496;DHT22;3281;47.658;9.166;2022-10-16T04:39:04;14.70;96.00
6496;DHT22;3281;47.658;9.166;2022-10-16T04:41:30;14.80;96.30
6496;DHT22;3281;47.658;9.166;2022-10-16T04:43:57;14.80;95.50
6496;DHT22;3281;47.658;9.166;2022-10-16T04:46:24;14.70;95.00
6496;DHT22;3281;47.658;9.166;2022-10-16T04:48:50;14.80;95.30
6496;DHT22;3281;47.658;9.166;2022-10-16T04:51:19;14.80;95.50
6496;DHT22;3281;47.658;9.166;2022-10-16T04:53:45;14.80;94.80
6496;DHT22;3281;47.658;9.166;2022-10-16T04:56:12;14.90;95.50
6496;DHT22;3281;47.658;9.166;2022-10-16T04:58:40;14.90;93.80
6496;DHT22;3281;47.658;9.166;2022-10-16T05:01:07;14.90;93.70
6496;DHT22;3281;47.658;9.166;2022-10-16T05:03:33;14.80;93.80
6496;DHT22;3281;47.658;9.166;2022-10-16T05:06:00;14.80;93.70
6496;DHT22;3281;47.658;9.166;2022-10-16T05:08:28;14.80;95.20
6496;DHT22;3281;47.658;9.166;2022-10-16T05:10:55;14.70;93.70
6496;DHT22;3281;47.658;9.166;2022-10-16T05:13:22;14.70;93.60
6496;DHT22;3281;47.658;9.166;2022-10-16T05:15:49;14.70;94.60
6496;DHT22;3281;47.658;9.166;2022-10-16T05:18:16;14.60;93.20
6496;DHT22;3281;47.658;9.166;2022-10-16T05:20:43;14.70;94.10
6496;DHT22;3281;47.658;9.166;2022-10-16T05:23:10;14.70;93.90
6496;DHT22;3281;47.658;9.166;2022-10-16T05:25:38;14.80;96.10
6496;DHT22;3281;47.658;9.166;2022-10-16T05:28:05;14.70;95.40
6496;DHT22;3281;47.658;9.166;2022-10-16T05:30:31;14.70;94.90
6496;DHT22;3281;47.658;9.166;2022-10-16T05:32:58;14.80;95.50
6496;DHT22;3281;47.658;9.166;2022-10-16T05:35:25;14.80;95.40
6496;DHT22;3281;47.658;9.166;2022-10-16T05:37:52;14.80;95.60
6496;DHT22;3281;47.658;9.166;2022-10-16T05:40:19;14.80;95.20
6496;DHT22;3281;47.658;9.166;2022-10-16T05:42:47;14.90;95.50
6496;DHT22;3281;47.658;9.166;2022-10-16T05:45:14;14.90;95.40
6496;DHT22;3281;47.658;9.166;2022-10-16T05:47:40;14.80;94.60
6496;DHT22;3281;47.658;9.166;2022-10-16T05:50:08;14.70;94.30
6496;DHT22;3281;47.658;9.166;2022-10-16T05:52:35;14.70;94.80
6496;DHT22;3281;47.658;9.166;2022-10-16T05:55:02;14.70;95.20
6496;DHT22;3281;47.658;9.166;2022-10-16T05:57:29;14.70;95.30
6496;DHT22;3281;47.658;9.166;2022-10-16T05:59:57;14.70;95.90
6496;DHT22;3281;47.658;9.166;2022-10-16T06:02:24;14.70;95.70
6496;DHT22;3281;47.658;9.166;2022-10-16T06:04:51;14.60;95.20
6496;DHT22;3281;47.658;9.166;2022-10-16T06:07:19;14.60;95.30
6496;DHT22;3281;47.658;9.166;2022-10-16T06:09:48;14.70;95.00
6496;DHT22;3281;47.658;9.166;2022-10-16T06:12:14;14.80;95.90
6496;DHT22;3281;47.658;9.166;2022-10-16T06:14:41;14.90;95.40
6496;DHT22;3281;47.658;9.166;2022-10-16T06:17:09;15.00;95.40
6496;DHT22;3281;47.658;9.166;2022-10-16T06:19:36;14.90;94.30
6496;DHT22;3281;47.658;9.166;2022-10-16T06:22:03;15.00;95.60
6496;DHT22;3281;47.658;9.166;2022-10-16T06:24:29;15.00;95.50
6496;DHT22;3281;47.658;9.166;2022-10-16T06:26:56;15.00;94.40
6496;DHT22;3281;47.658;9.166;2022-10-16T06:29:23;15.00;95.00
6496;DHT22;3281;47.658;9.166;2022-10-16T06:31:49;15.00;95.00
6496;DHT22;3281;47.658;9.166;2022-10-16T06:34:17;15.00;95.50
6496;DHT22;3281;47.658;9.166;2022-10-16T06:36:44;14.90;95.30
6496;DHT22;3281;47.658;9.166;2022-10-16T06:39:11;14.90;94.30
6496;DHT22;3281;47.658;9.166;2022-10-16T06:41:38;14.80;93.80
6496;DHT22;3281;47.658;9.166;2022-10-16T06:44:05;15.00;95.30
6496;DHT22;3281;47.658;9.166;2022-10-16T06:46:32;15.00;93.70
6496;DHT22;3281;47.658;9.166;2022-10-16T06:49:00;14.80;91.50
6496;DHT22;3281;47.658;9.166;2022-10-16T06:51:28;14.90;95.40
6496;DHT22;3281;47.658;9.166;2022-10-16T06:53:56;15.00;94.70
6496;DHT22;3281;47.658;9.166;2022-10-16T06:56:25;15.00;94.10
6496;DHT22;3281;47.658;9.166;2022-10-16T06:58:53;14.90;94.80
6496;DHT22;3281;47.658;9.166;2022-10-16T07:01:22;14.90;95.60
6496;DHT22;3281;47.658;9.166;2022-10-16T07:03:50;14.90;95.50
6496;DHT22;3281;47.658;9.166;2022-10-16T07:06:18;14.90;94.10
6496;DHT22;3281;47.658;9.166;2022-10-16T07:08:47;14.90;93.00
6496;DHT22;3281;47.658;9.166;2022-10-16T07:11:15;14.90;92.60
6496;DHT22;3281;47.658;9.166;2022-10-16T07:13:43;14.90;94.20
6496;DHT22;3281;47.658;9.166;2022-10-16T07:16:11;15.00;95.00
6496;DHT22;3281;47.658;9.166;2022-10-16T07:18:39;15.00;95.70
6496;DHT22;3281;47.658;9.166;2022-10-16T07:21:10;15.10;95.60
6496;DHT22;3281;47.658;9.166;2022-10-16T07:23:37;15.00;94.80
6496;DHT22;3281;47.658;9.166;2022-10-16T07:26:06;15.00;93.00
6496;DHT22;3281;47.658;9.166;2022-10-16T07:28:33;15.00;92.90
6496;DHT22;3281;47.658;9.166;2022-10-16T07:31:01;15.00;94.40
6496;DHT22;3281;47.658;9.166;2022-10-16T07:33:27;15.00;93.10
6496;DHT22;3281;47.658;9.166;2022-10-16T07:35:54;15.00;92.20
6496;DHT22;3281;47.658;9.166;2022-10-16T07:38:21;15.00;93.50
6496;DHT22;3281;47.658;9.166;2022-10-16T07:40:55;15.00;93.20
6496;DHT22;3281;47.658;9.166;2022-10-16T07:43:23;15.00;95.50
6496;DHT22;3281;47.658;9.166;2022-10-16T07:45:50;15.10;93.60
6496;DHT22;3281;47.658;9.166;2022-10-16T07:48:17;15.30;94.30
6496;DHT22;3281;47.658;9.166;2022-10-16T07:50:44;15.30;93.70
6496;DHT22;3281;47.658;9.166;2022-10-16T07:53:12;15.40;93.00
6496;DHT22;3281;47.658;9.166;2022-10-16T07:55:38;15.50;93.10
6496;DHT22;3281;47.658;9.166;2022-10-16T07:58:05;15.50;91.80
6496;DHT22;3281;47.658;9.166;2022-10-16T08:00:34;15.40;92.10
6496;DHT22;3281;47.658;9.166;2022-10-16T08:03:02;15.40;92.30
6496;DHT22;3281;47.658;9.166;2022-10-16T08:05:30;15.40;91.10
6496;DHT22;3281;47.658;9.166;2022-10-16T08:07:57;15.30;90.90
6496;DHT22;3281;47.658;9.166;2022-10-16T08:10:26;15.20;89.30
6496;DHT22;3281;47.658;9.166;2022-10-16T08:12:53;15.20;91.40
6496;DHT22;3281;47.658;9.166;2022-10-16T08:15:20;15.20;90.60
6496;DHT22;3281;47.658;9.166;2022-10-16T08:17:58;15.40;93.90
6496;DHT22;3281;47.658;9.166;2022-10-16T08:20:26;15.60;91.80
6496;DHT22;3281;47.658;9.166;2022-10-16T08:22:53;15.70;91.50
6496;DHT22;3281;47.658;9.166;2022-10-16T08:25:20;15.80;90.60
6496;DHT22;3281;47.658;9.166;2022-10-16T08:27:47;15.80;86.20
6496;DHT22;3281;47.658;9.166;2022-10-16T08:30:15;15.80;83.00
6496;DHT22;3281;47.658;9.166;2022-10-16T08:32:42;15.90;86.60
6496;DHT22;3281;47.658;9.166;2022-10-16T08:35:11;15.90;85.60
6496;DHT22;3281;47.658;9.166;2022-10-16T08:37:38;15.80;76.10
6496;DHT22;3281;47.658;9.166;2022-10-16T08:40:07;15.80;80.80
6496;DHT22;3281;47.658;9.166;2022-10-16T08:42:56;15.90;85.60
6496;DHT22;3281;47.658;9.166;2022-10-16T08:45:34;15.80;80.80
6496;DHT22;3281;47.658;9.166;2022-10-16T08:48:17;15.80;80.80
6496;DHT22;3281;47.658;9.166;2022-10-16T08:50:48;15.80;84.00
6496;DHT22;3281;47.658;9.166;2022-10-16T08:53:20;15.70;81.30
6496;DHT22;3281;47.658;9.166;2022-10-16T08:55:50;15.70;80.60
6496;DHT22;3281;47.658;9.166;2022-10-16T08:58:20;15.70;83.80
6496;DHT22;3281;47.658;9.166;2022-10-16T09:00:49;15.80;81.50
6496;DHT22;3281;47.658;9.166;2022-10-16T09:03:29;15.90;82.70
6496;DHT22;3281;47.658;9.166;2022-10-16T09:06:22;15.90;79.00
6496;DHT22;3281;47.658;9.166;2022-10-16T09:09:10;16.00;78.70
6496;DHT22;3281;47.658;9.166;2022-10-16T09:11:47;16.60;75.80
6496;DHT22;3281;47.658;9.166;2022-10-16T09:14:33;17.10;61.50
6496;DHT22;3281;47.658;9.166;2022-10-16T09:17:12;17.20;53.40
6496;DHT22;3281;47.658;9.166;2022-10-16T09:19:45;17.40;53.60
6496;DHT22;3281;47.658;9.166;2022-10-16T09:22:15;17.80;48.20
6496;DHT22;3281;47.658;9.166;2022-10-16T09:24:42;18.20;44.90
6496;DHT22;3281;47.658;9.166;2022-10-16T09:27:10;18.60;43.60
6496;DHT22;3281;47.658;9.166;2022-10-16T09:29:37;18.80;42.40
6496;DHT22;3281;47.658;9.166;2022-10-16T09:32:10;18.80;40.10
6496;DHT22;3281;47.658;9.166;2022-10-16T09:34:42;18.40;39.40
6496;DHT22;3281;47.658;9.166;2022-10-16T09:37:14;18.30;43.60
6496;DHT22;3281;47.658;9.166;2022-10-16T09:39:47;18.30;43.10
6496;DHT22;3281;47.658;9.166;2022-10-16T09:42:16;18.30;43.70
6496;DHT22;3281;47.658;9.166;2022-10-16T09:44:47;18.40;41.80
6496;DHT22;3281;47.658;9.166;2022-10-16T09:47:16;18.30;43.70
6496;DHT22;3281;47.658;9.166;2022-10-16T09:49:51;18.30;37.50
6496;DHT22;3281;47.658;9.166;2022-10-16T09:52:21;18.30;43.50
6496;DHT22;3281;47.658;9.166;2022-10-16T09:54:53;18.30;40.90
6496;DHT22;3281;47.658;9.166;2022-10-16T09:57:20;18.20;37.40
6496;DHT22;3281;47.658;9.166;2022-10-16T09:59:48;18.30;44.70
6496;DHT22;3281;47.658;9.166;2022-10-16T10:02:16;18.40;43.70
6496;DHT22;3281;47.658;9.166;2022-10-16T10:04:49;18.40;46.20
6496;DHT22;3281;47.658;9.166;2022-10-16T10:07:20;18.40;39.70
6496;DHT22;3281;47.658;9.166;2022-10-16T10:09:47;18.40;38.80
6496;DHT22;3281;47.658;9.166;2022-10-16T10:12:19;18.60;38.60
6496;DHT22;3281;47.658;9.166;2022-10-16T10:14:48;18.60;32.80
6496;DHT22;3281;47.658;9.166;2022-10-16T10:17:18;18.60;41.30
6496;DHT22;3281;47.658;9.166;2022-10-16T10:19:51;18.50;36.20
6496;DHT22;3281;47.658;9.166;2022-10-16T10:22:30;18.60;34.70
6496;DHT22;3281;47.658;9.166;2022-10-16T10:25:12;18.50;38.40
6496;DHT22;3281;47.658;9.166;2022-10-16T10:27:47;18.60;44.10
6496;DHT22;3281;47.658;9.166;2022-10-16T10:30:20;18.40;38.60
6496;DHT22;3281;47.658;9.166;2022-10-16T10:32:55;18.30;39.00
6496;DHT22;3281;47.658;9.166;2022-10-16T10:35:30;18.30;38.20
6496;DHT22;3281;47.658;9.166;2022-10-16T10:38:16;18.20;36.70
6496;DHT22;3281;47.658;9.166;2022-10-16T10:40:51;18.20;43.70
6496;DHT22;3281;47.658;9.166;2022-10-16T10:43:28;18.20;38.00
6496;DHT22;3281;47.658;9.166;2022-10-16T10:46:00;18.30;43.00
6496;DHT22;3281;47.658;9.166;2022-10-16T10:48:58;18.40;39.40
6496;DHT22;3281;47.658;9.166;2022-10-16T10:51:31;18.40;35.30
6496;DHT22;3281;47.658;9.166;2022-10-16T10:54:13;18.50;43.00
6496;DHT22;3281;47.658;9.166;2022-10-16T10:56:48;18.60;33.10
6496;DHT22;3281;47.658;9.166;2022-10-16T10:59:41;18.80;25.60
6496;DHT22;3281;47.658;9.166;2022-10-16T11:02:15;19.10;27.60
6496;DHT22;3281;47.658;9.166;2022-10-16T11:05:13;19.70;24.20
6496;DHT22;3281;47.658;9.166;2022-10-16T11:07:48;20.00;24.40
6496;DHT22;3281;47.658;9.166;2022-10-16T11:10:21;19.90;22.50
6496;DHT22;3281;47.658;9.166;2022-10-16T11:12:53;19.80;21.30
6496;DHT22;3281;47.658;9.166;2022-10-16T11:15:25;19.60;20.90
6496;DHT22;3281;47.658;9.166;2022-10-16T11:17:57;19.40;21.00
6496;DHT22;3281;47.658;9.166;2022-10-16T11:20:29;19.20;20.50
6496;DHT22;3281;47.658;9.166;2022-10-16T11:23:01;19.10;16.60
6496;DHT22;3281;47.658;9.166;2022-10-16T11:25:33;19.00;11.50
6496;DHT22;3281;47.658;9.166;2022-10-16T11:28:03;19.10;12.70
6496;DHT22;3281;47.658;9.166;2022-10-16T11:30:40;19.10;14.10
6496;DHT22;3281;47.658;9.166;2022-10-16T11:33:20;19.20;10.40
6496;DHT22;3281;47.658;9.166;2022-10-16T11:35:52;19.70;11.60
6496;DHT22;3281;47.658;9.166;2022-10-16T11:38:26;20.10;10.30
6496;DHT22;3281;47.658;9.166;2022-10-16T11:40:58;20.20;13.10
6496;DHT22;3281;47.658;9.166;2022-10-16T11:43:29;20.20;9.50
6496;DHT22;3281;47.658;9.166;2022-10-16T11:46:02;20.20;15.30
6496;DHT22;3281;47.658;9.166;2022-10-16T11:48:35;20.10;15.00
6496;DHT22;3281;47.658;9.166;2022-10-16T11:51:14;20.30;9.50
6496;DHT22;3281;47.658;9.166;2022-10-16T11:53:46;20.20;15.70
6496;DHT22;3281;47.658;9.166;2022-10-16T11:56:18;20.10;22.70
6496;DHT22;3281;47.658;9.166;2022-10-16T11:58:53;19.90;11.40
6496;DHT22;3281;47.658;9.166;2022-10-16T12:01:27;19.80;15.00
6496;DHT22;3281;47.658;9.166;2022-10-16T12:04:09;19.60;19.20
6496;DHT22;3281;47.658;9.166;2022-10-16T12:06:42;19.70;18.00
6496;DHT22;3281;47.658;9.166;2022-10-16T12:09:15;19.60;18.80
6496;DHT22;3281;47.658;9.166;2022-10-16T12:11:47;19.50;20.90
6496;DHT22;3281;47.658;9.166;2022-10-16T12:17:03;19.60;14.90
6496;DHT22;3281;47.658;9.166;2022-10-16T12:19:32;19.80;15.50
6496;DHT22;3281;47.658;9.166;2022-10-16T12:22:00;19.70;14.90
6496;DHT22;3281;47.658;9.166;2022-10-16T12:24:34;19.60;18.90
6496;DHT22;3281;47.658;9.166;2022-10-16T12:27:05;19.50;14.80
6496;DHT22;3281;47.658;9.166;2022-10-16T12:29:36;19.50;14.80
6496;DHT22;3281;47.658;9.166;2022-10-16T12:32:05;19.60;18.50
6496;DHT22;3281;47.658;9.166;2022-10-16T12:34:38;19.60;23.10
6496;DHT22;3281;47.658;9.166;2022-10-16T12:37:11;19.70;19.60
6496;DHT22;3281;47.658;9.166;2022-10-16T12:39:39;19.90;15.10
6496;DHT22;3281;47.658;9.166;2022-10-16T12:42:21;20.00;15.20
6496;DHT22;3281;47.658;9.166;2022-10-16T12:44:49;19.90;15.10
6496;DHT22;3281;47.658;9.166;2022-10-16T12:47:23;19.90;24.30
6496;DHT22;3281;47.658;9.166;2022-10-16T12:50:01;19.90;24.20
6496;DHT22;3281;47.658;9.166;2022-10-16T12:52:35;20.00;20.30
6496;DHT22;3281;47.658;9.166;2022-10-16T12:55:03;20.10;15.20
6496;DHT22;3281;47.658;9.166;2022-10-16T12:57:40;20.20;13.50
6496;DHT22;3281;47.658;9.166;2022-10-16T13:00:18;20.20;15.30
6496;DHT22;3281;47.658;9.166;2022-10-16T13:05:46;20.20;8.10
6496;DHT22;3281;47.658;9.166;2022-10-16T13:08:30;20.20;10.20
6496;DHT22;3281;47.658;9.166;2022-10-16T13:11:07;20.20;8.60
6496;DHT22;3281;47.658;9.166;2022-10-16T13:13:59;20.20;9.70
6496;DHT22;3281;47.658;9.166;2022-10-16T13:16:36;20.20;12.50
6496;DHT22;3281;47.658;9.166;2022-10-16T13:19:16;20.10;13.60
6496;DHT22;3281;47.658;9.166;2022-10-16T13:21:49;20.10;7.80
6496;DHT22;3281;47.658;9.166;2022-10-16T13:24:39;20.00;9.90
6496;DHT22;3281;47.658;9.166;2022-10-16T13:27:17;20.00;15.80
6496;DHT22;3281;47.658;9.166;2022-10-16T13:29:53;19.80;17.10
6496;DHT22;3281;47.658;9.166;2022-10-16T13:32:21;19.70;17.80
6496;DHT22;3281;47.658;9.166;2022-10-16T13:34:49;19.70;18.20
6496;DHT22;3281;47.658;9.166;2022-10-16T13:37:20;19.70;15.00
6496;DHT22;3281;47.658;9.166;2022-10-16T13:39:48;19.80;10.60
6496;DHT22;3281;47.658;9.166;2022-10-16T13:42:23;19.90;7.20
6496;DHT22;3281;47.658;9.166;2022-10-16T13:44:54;19.90;9.40
6496;DHT22;3281;47.658;9.166;2022-10-16T13:47:22;20.00;10.30
6496;DHT22;3281;47.658;9.166;2022-10-16T13:49:59;20.00;15.30
6496;DHT22;3281;47.658;9.166;2022-10-16T13:52:26;20.00;12.20
6496;DHT22;3281;47.658;9.166;2022-10-16T13:54:53;20.10;7.30
6496;DHT22;3281;47.658;9.166;2022-10-16T13:57:22;20.10;5.60
6496;DHT22;3281;47.658;9.166;2022-10-16T13:59:53;20.10;8.50
6496;DHT22;3281;47.658;9.166;2022-10-16T14:02:22;20.10;11.30
6496;DHT22;3281;47.658;9.166;2022-10-16T14:04:52;20.00;12.20
6496;DHT22;3281;47.658;9.166;2022-10-16T14:07:23;20.00;10.30
6496;DHT22;3281;47.658;9.166;2022-10-16T14:09:51;19.90;5.80
6496;DHT22;3281;47.658;9.166;2022-10-16T14:12:18;19.90;5.50
6496;DHT22;3281;47.658;9.166;2022-10-16T14:14:47;20.00;5.60
6496;DHT22;3281;47.658;9.166;2022-10-16T14:17:18;20.00;5.60
6496;DHT22;3281;47.658;9.166;2022-10-16T14:19:46;20.00;5.60
6496;DHT22;3281;47.658;9.166;2022-10-16T14:22:26;20.00;6.80
6496;DHT22;3281;47.658;9.166;2022-10-16T14:24:55;20.00;6.70
6496;DHT22;3281;47.658;9.166;2022-10-16T14:27:29;19.90;12.90
6496;DHT22;3281;47.658;9.166;2022-10-16T14:30:14;19.90;13.20
6496;DHT22;3281;47.658;9.166;2022-10-16T14:32:53;19.80;17.60
6496;DHT22;3281;47.658;9.166;2022-10-16T14:35:29;19.90;7.90
6496;DHT22;3281;47.658;9.166;2022-10-16T14:37:57;19.80;15.00
6496;DHT22;3281;47.658;9.166;2022-10-16T14:40:26;20.00;5.20
6496;DHT22;3281;47.658;9.166;2022-10-16T14:42:53;20.20;6.40
6496;DHT22;3281;47.658;9.166;2022-10-16T14:45:22;20.10;10.40
6496;DHT22;3281;47.658;9.166;2022-10-16T14:47:54;20.00;15.30
6496;DHT22;3281;47.658;9.166;2022-10-16T14:50:21;19.90;20.00
6496;DHT22;3281;47.658;9.166;2022-10-16T14:52:48;19.80;14.20
6496;DHT22;3281;47.658;9.166;2022-10-16T14:55:15;19.80;19.80
6496;DHT22;3281;47.658;9.166;2022-10-16T14:57:43;19.80;22.20
6496;DHT22;3281;47.658;9.166;2022-10-16T15:00:16;19.70;15.00
6496;DHT22;3281;47.658;9.166;2022-10-16T15:02:44;19.80;24.20
6496;DHT22;3281;47.658;9.166;2022-10-16T15:05:15;19.70;20.50
6496;DHT22;3281;47.658;9.166;2022-10-16T15:07:43;19.70;24.20
6496;DHT22;3281;47.658;9.166;2022-10-16T15:10:10;19.70;24.20
6496;DHT22;3281;47.658;9.166;2022-10-16T15:12:37;19.60;22.00
6496;DHT22;3281;47.658;9.166;2022-10-16T15:15:26;19.50;24.00
6496;DHT22;3281;47.658;9.166;2022-10-16T15:17:56;19.40;25.70
6496;DHT22;3281;47.658;9.166;2022-10-16T15:20:25;19.40;26.90
6496;DHT22;3281;47.658;9.166;2022-10-16T15:22:52;19.30;30.40
6496;DHT22;3281;47.658;9.166;2022-10-16T15:25:29;19.30;29.50
6496;DHT22;3281;47.658;9.166;2022-10-16T15:27:57;19.30;33.50
6496;DHT22;3281;47.658;9.166;2022-10-16T15:30:24;19.30;37.20
6496;DHT22;3281;47.658;9.166;2022-10-16T15:32:50;19.20;34.20
6496;DHT22;3281;47.658;9.166;2022-10-16T15:35:17;19.20;39.00
6496;DHT22;3281;47.658;9.166;2022-10-16T15:37:46;19.20;40.70
6496;DHT22;3281;47.658;9.166;2022-10-16T15:40:12;19.10;42.00
6496;DHT22;3281;47.658;9.166;2022-10-16T15:42:39;19.10;44.10
6496;DHT22;3281;47.658;9.166;2022-10-16T15:45:08;19.00;44.20
6496;DHT22;3281;47.658;9.166;2022-10-16T15:47:35;18.90;46.60
6496;DHT22;3281;47.658;9.166;2022-10-16T15:50:01;18.90;46.90
6496;DHT22;3281;47.658;9.166;2022-10-16T15:52:29;18.80;45.00
6496;DHT22;3281;47.658;9.166;2022-10-16T15:54:58;18.80;47.20
6496;DHT22;3281;47.658;9.166;2022-10-16T15:57:27;18.70;48.80
6496;DHT22;3281;47.658;9.166;2022-10-16T15:59:53;18.60;46.90
6496;DHT22;3281;47.658;9.166;2022-10-16T16:02:20;18.60;48.10
6496;DHT22;3281;47.658;9.166;2022-10-16T16:04:47;18.60;49.30
6496;DHT22;3281;47.658;9.166;2022-10-16T16:07:14;18.50;52.10
6496;DHT22;3281;47.658;9.166;2022-10-16T16:09:40;18.50;52.50
6496;DHT22;3281;47.658;9.166;2022-10-16T16:12:08;18.50;52.90
6496;DHT22;3281;47.658;9.166;2022-10-16T16:14:35;18.40;54.40
6496;DHT22;3281;47.658;9.166;2022-10-16T16:17:02;18.30;53.40
6496;DHT22;3281;47.658;9.166;2022-10-16T16:19:29;18.30;54.30
6496;DHT22;3281;47.658;9.166;2022-10-16T16:21:57;18.20;58.00
6496;DHT22;3281;47.658;9.166;2022-10-16T16:24:24;18.20;57.30
6496;DHT22;3281;47.658;9.166;2022-10-16T16:26:50;18.10;57.20